sensor_id;sensor_type;location;lat;lon;timestamp;pressure;altitude;pressure_sealevel;temperature;humidity
41254;BME280;26987;59.928;30.306;2023-10-09T00:01:44;100213.94;;;2.13;100.00
41254;BME280;26987;59.928;30.306;2023-10-09T00:04:13;100206.47;;;2.09;100.00
41254;BME280;26987;59.928;30.306;2023-10-09T00:06:42;100199.72;;;2.06;100.00
41254;BME280;26987;59.928;30.306;2023-10-09T00:09:10;100219.53;;;2.10;100.00
41254;BME280;26987;59.928;30.306;2023-10-09T00:11:57;100223.19;;;2.09;100.00
41254;BME280;26987;59.928;30.306;2023-10-09T00:14:30;100214.56;;;2.07;100.00
41254;BME280;26987;59.928;30.306;2023-10-09T00:17:00;100219.88;;;2.07;100.00
41254;BME280;26987;59.928;30.306;2023-10-09T00:19:44;100222.50;;;2.07;100.00
41254;BME280;26987;59.928;30.306;2023-10-09T00:22:14;100222.34;;;2.09;100.00
41254;BME280;26987;59.928;30.306;2023-10-09T00:24:52;100227.63;;;2.09;100.00
41254;BME280;26987;59.928;30.306;2023-10-09T00:27:37;100229.28;;;2.10;100.00
41254;BME280;26987;59.928;30.306;2023-10-09T00:30:12;100234.56;;;2.10;100.00
41254;BME280;26987;59.928;30.306;2023-10-09T00:32:42;100225.84;;;2.09;100.00
41254;BME280;26987;59.928;30.306;2023-10-09T00:35:18;100229.78;;;2.13;100.00
41254;BME280;26987;59.928;30.306;2023-10-09T00:38:06;100228.78;;;2.14;100.00
41254;BME280;26987;59.928;30.306;2023-10-09T00:40:42;100234.09;;;2.14;100.00
41254;BME280;26987;59.928;30.306;2023-10-09T00:43:14;100236.91;;;2.13;100.00
41254;BME280;26987;59.928;30.306;2023-10-09T00:45:43;100235.72;;;2.16;100.00
41254;BME280;26987;59.928;30.306;2023-10-09T00:48:13;100230.78;;;2.12;100.00
41254;BME280;26987;59.928;30.306;2023-10-09T00:50:49;100246.00;;;2.10;100.00
41254;BME280;26987;59.928;30.306;2023-10-09T00:53:22;100235.41;;;2.10;100.00
41254;BME280;26987;59.928;30.306;2023-10-09T00:55:58;100218.50;;;1.86;100.00
41254;BME280;26987;59.928;30.306;2023-10-09T00:58:32;100249.63;;;2.09;100.00
41254;BME280;26987;59.928;30.306;2023-10-09T01:01:04;100254.94;;;2.09;100.00
41254;BME280;26987;59.928;30.306;2023-10-09T01:03:42;100251.59;;;2.07;100.00
41254;BME280;26987;59.928;30.306;2023-10-09T01:06:11;100250.78;;;2.07;100.00
41254;BME280;26987;59.928;30.306;2023-10-09T01:08:47;100250.94;;;2.05;100.00
41254;BME280;26987;59.928;30.306;2023-10-09T01:11:33;100217.19;;;1.82;100.00
41254;BME280;26987;59.928;30.306;2023-10-09T01:14:17;100251.94;;;2.04;100.00
41254;BME280;26987;59.928;30.306;2023-10-09T01:16:49;100258.06;;;2.05;100.00
41254;BME280;26987;59.928;30.306;2023-10-09T01:19:20;100259.38;;;2.09;100.00
41254;BME280;26987;59.928;30.306;2023-10-09T01:21:50;100241.84;;;1.99;100.00
41254;BME280;26987;59.928;30.306;2023-10-09T01:24:20;100262.50;;;2.12;100.00
41254;BME280;26987;59.928;30.306;2023-10-09T01:26:49;100264.50;;;2.10;100.00
41254;BME280;26987;59.928;30.306;2023-10-09T01:29:21;100272.28;;;2.12;100.00
41254;BME280;26987;59.928;30.306;2023-10-09T01:31:55;100273.59;;;2.08;100.00
41254;BME280;26987;59.928;30.306;2023-10-09T01:34:28;100265.47;;;2.01;100.00
41254;BME280;26987;59.928;30.306;2023-10-09T01:37:06;100262.00;;;2.00;100.00
41254;BME280;26987;59.928;30.306;2023-10-09T01:39:43;100276.91;;;2.10;100.00
41254;BME280;26987;59.928;30.306;2023-10-09T01:42:11;100274.41;;;2.08;100.00
41254;BME280;26987;59.928;30.306;2023-10-09T01:44:49;100275.09;;;2.10;100.00
41254;BME280;26987;59.928;30.306;2023-10-09T01:47:18;100275.41;;;2.07;100.00
41254;BME280;26987;59.928;30.306;2023-10-09T01:49:48;100278.06;;;2.07;100.00
41254;BME280;26987;59.928;30.306;2023-10-09T01:52:19;100269.75;;;2.02;100.00
41254;BME280;26987;59.928;30.306;2023-10-09T01:54:51;100269.44;;;2.05;100.00
41254;BME280;26987;59.928;30.306;2023-10-09T01:57:20;100279.53;;;2.10;100.00
41254;BME280;26987;59.928;30.306;2023-10-09T01:59:50;100242.63;;;1.83;100.00
41254;BME280;26987;59.928;30.306;2023-10-09T02:02:20;100284.66;;;2.03;100.00
41254;BME280;26987;59.928;30.306;2023-10-09T02:05:01;100280.34;;;2.02;100.00
41254;BME280;26987;59.928;30.306;2023-10-09T02:07:49;100284.50;;;2.05;100.00
41254;BME280;26987;59.928;30.306;2023-10-09T02:10:21;100282.50;;;2.07;100.00
41254;BME280;26987;59.928;30.306;2023-10-09T02:12:52;100264.63;;;1.92;100.00
41254;BME280;26987;59.928;30.306;2023-10-09T02:15:25;100287.00;;;2.06;100.00
41254;BME280;26987;59.928;30.306;2023-10-09T02:18:07;100295.56;;;2.08;100.00
41254;BME280;26987;59.928;30.306;2023-10-09T02:20:45;100292.94;;;2.08;100.00
41254;BME280;26987;59.928;30.306;2023-10-09T02:23:14;100291.97;;;2.09;100.00
41254;BME280;26987;59.928;30.306;2023-10-09T02:25:45;100288.00;;;2.13;100.00
41254;BME280;26987;59.928;30.306;2023-10-09T02:28:13;100287.66;;;2.17;100.00
41254;BME280;26987;59.928;30.306;2023-10-09T02:30:45;100251.25;;;1.94;100.00
41254;BME280;26987;59.928;30.306;2023-10-09T02:33:15;100289.31;;;2.18;100.00
41254;BME280;26987;59.928;30.306;2023-10-09T02:35:54;100277.75;;;2.10;100.00
41254;BME280;26987;59.928;30.306;2023-10-09T02:38:25;100277.06;;;2.08;100.00
41254;BME280;26987;59.928;30.306;2023-10-09T02:40:54;100288.81;;;2.14;100.00
41254;BME280;26987;59.928;30.306;2023-10-09T02:43:39;100283.50;;;2.14;100.00
41254;BME280;26987;59.928;30.306;2023-10-09T02:46:11;100290.63;;;2.13;100.00
41254;BME280;26987;59.928;30.306;2023-10-09T02:48:44;100288.00;;;2.13;100.00
41254;BME280;26987;59.928;30.306;2023-10-09T02:51:18;100289.63;;;2.14;100.00
41254;BME280;26987;59.928;30.306;2023-10-09T02:54:00;100287.31;;;2.11;100.00
41254;BME280;26987;59.928;30.306;2023-10-09T02:56:36;100284.34;;;2.14;100.00
41254;BME280;26987;59.928;30.306;2023-10-09T02:59:09;100303.53;;;2.17;100.00
41254;BME280;26987;59.928;30.306;2023-10-09T03:01:39;100240.31;;;1.80;100.00
41254;BME280;26987;59.928;30.306;2023-10-09T03:04:07;100296.56;;;2.16;100.00
41254;BME280;26987;59.928;30.306;2023-10-09T03:06:37;100291.59;;;2.12;100.00
41254;BME280;26987;59.928;30.306;2023-10-09T03:09:09;100303.88;;;2.13;100.00
41254;BME280;26987;59.928;30.306;2023-10-09T03:11:47;100298.25;;;2.17;100.00
41254;BME280;26987;59.928;30.306;2023-10-09T03:14:19;100294.59;;;2.18;100.00
41254;BME280;26987;59.928;30.306;2023-10-09T03:16:48;100297.94;;;2.20;100.00
41254;BME280;26987;59.928;30.306;2023-10-09T03:19:15;100297.25;;;2.18;100.00
41254;BME280;26987;59.928;30.306;2023-10-09T03:21:43;100300.91;;;2.25;100.00
41254;BME280;26987;59.928;30.306;2023-10-09T03:24:13;100300.91;;;2.25;100.00
41254;BME280;26987;59.928;30.306;2023-10-09T03:26:42;100306.88;;;2.27;100.00
41254;BME280;26987;59.928;30.306;2023-10-09T03:29:13;100314.81;;;2.27;100.00
41254;BME280;26987;59.928;30.306;2023-10-09T03:31:41;100304.03;;;2.20;100.00
41254;BME280;26987;59.928;30.306;2023-10-09T03:34:09;100315.13;;;2.24;100.00
41254;BME280;26987;59.928;30.306;2023-10-09T03:36:37;100310.84;;;2.23;100.00
41254;BME280;26987;59.928;30.306;2023-10-09T03:39:05;100279.53;;;2.01;100.00
41254;BME280;26987;59.928;30.306;2023-10-09T03:41:51;100309.81;;;2.16;100.00
41254;BME280;26987;59.928;30.306;2023-10-09T03:44:21;100312.59;;;2.14;100.00
41254;BME280;26987;59.928;30.306;2023-10-09T03:46:49;100308.31;;;2.13;100.00
41254;BME280;26987;59.928;30.306;2023-10-09T03:49:18;100304.03;;;2.12;100.00
41254;BME280;26987;59.928;30.306;2023-10-09T03:51:50;100315.75;;;2.09;100.00
41254;BME280;26987;59.928;30.306;2023-10-09T03:54:18;100191.41;;;1.33;100.00
41254;BME280;26987;59.928;30.306;2023-10-09T03:56:47;100312.44;;;2.07;100.00
41254;BME280;26987;59.928;30.306;2023-10-09T03:59:16;100297.56;;;2.06;100.00
41254;BME280;26987;59.928;30.306;2023-10-09T04:01:47;100309.97;;;2.06;100.00
41254;BME280;26987;59.928;30.306;2023-10-09T04:04:17;100305.97;;;2.01;100.00
41254;BME280;26987;59.928;30.306;2023-10-09T04:06:49;100312.09;;;2.02;100.00
41254;BME280;26987;59.928;30.306;2023-10-09T04:09:18;100314.09;;;2.00;100.00
41254;BME280;26987;59.928;30.306;2023-10-09T04:12:02;100312.41;;;1.99;100.00
41254;BME280;26987;59.928;30.306;2023-10-09T04:14:53;100313.09;;;2.01;100.00
41254;BME280;26987;59.928;30.306;2023-10-09T04:17:25;100318.06;;;2.04;100.00
41254;BME280;26987;59.928;30.306;2023-10-09T04:20:03;100319.06;;;2.03;100.00
41254;BME280;26987;59.928;30.306;2023-10-09T04:22:49;100305.78;;;1.95;100.00
41254;BME280;26987;59.928;30.306;2023-10-09T04:25:26;100317.06;;;2.05;100.00
41254;BME280;26987;59.928;30.306;2023-10-09T04:27:56;100303.81;;;1.97;100.00
41254;BME280;26987;59.928;30.306;2023-10-09T04:30:35;100313.28;;;2.08;100.00
41254;BME280;26987;59.928;30.306;2023-10-09T04:33:08;100322.88;;;2.09;100.00
41254;BME280;26987;59.928;30.306;2023-10-09T04:35:54;100323.69;;;2.09;100.00
41254;BME280;26987;59.928;30.306;2023-10-09T04:38:36;100328.31;;;2.16;100.00
41254;BME280;26987;59.928;30.306;2023-10-09T04:41:05;100332.97;;;2.13;100.00
41254;BME280;26987;59.928;30.306;2023-10-09T04:43:34;100330.47;;;2.12;100.00
41254;BME280;26987;59.928;30.306;2023-10-09T04:46:09;100326.69;;;2.14;100.00
41254;BME280;26987;59.928;30.306;2023-10-09T04:48:40;100336.47;;;2.22;100.00
41254;BME280;26987;59.928;30.306;2023-10-09T04:51:14;100290.44;;;1.98;100.00
41254;BME280;26987;59.928;30.306;2023-10-09T04:53:47;100325.72;;;2.24;100.00
41254;BME280;26987;59.928;30.306;2023-10-09T04:56:39;100338.63;;;2.27;100.00
41254;BME280;26987;59.928;30.306;2023-10-09T04:59:19;100342.22;;;2.26;100.00
41254;BME280;26987;59.928;30.306;2023-10-09T05:01:51;100334.66;;;2.31;100.00
41254;BME280;26987;59.928;30.306;2023-10-09T05:04:26;100340.31;;;2.36;100.00
41254;BME280;26987;59.928;30.306;2023-10-09T05:07:06;100340.94;;;2.38;100.00
41254;BME280;26987;59.928;30.306;2023-10-09T05:09:48;100348.06;;;2.38;100.00
41254;BME280;26987;59.928;30.306;2023-10-09T05:12:41;100341.09;;;2.37;100.00
41254;BME280;26987;59.928;30.306;2023-10-09T05:15:13;100350.22;;;2.43;100.00
41254;BME280;26987;59.928;30.306;2023-10-09T05:17:41;100346.59;;;2.44;100.00
41254;BME280;26987;59.928;30.306;2023-10-09T05:20:19;100346.44;;;2.45;100.00
41254;BME280;26987;59.928;30.306;2023-10-09T05:23:04;100350.56;;;2.48;100.00
41254;BME280;26987;59.928;30.306;2023-10-09T05:25:49;100354.53;;;2.52;100.00
41254;BME280;26987;59.928;30.306;2023-10-09T05:28:25;100346.59;;;2.52;100.00
41254;BME280;26987;59.928;30.306;2023-10-09T05:30:57;100354.06;;;2.57;100.00
41254;BME280;26987;59.928;30.306;2023-10-09T05:33:35;100354.88;;;2.57;100.00
41254;BME280;26987;59.928;30.306;2023-10-09T05:36:06;100354.56;;;2.60;100.00
41254;BME280;26987;59.928;30.306;2023-10-09T05:38:58;100360.03;;;2.59;99.54
41254;BME280;26987;59.928;30.306;2023-10-09T05:41:44;100340.66;;;2.50;99.41
41254;BME280;26987;59.928;30.306;2023-10-09T05:44:19;100370.63;;;2.59;98.91
41254;BME280;26987;59.928;30.306;2023-10-09T05:47:03;100330.03;;;2.42;99.63
41254;BME280;26987;59.928;30.306;2023-10-09T05:49:48;100358.03;;;2.61;98.95
41254;BME280;26987;59.928;30.306;2023-10-09T05:52:30;100339.31;;;2.46;98.54
41254;BME280;26987;59.928;30.306;2023-10-09T05:55:28;100366.63;;;2.63;98.10
41254;BME280;26987;59.928;30.306;2023-10-09T05:58:18;100364.16;;;2.61;98.66
41254;BME280;26987;59.928;30.306;2023-10-09T06:01:03;100355.06;;;2.56;98.99
41254;BME280;26987;59.928;30.306;2023-10-09T06:04:04;100367.81;;;2.60;97.56
41254;BME280;26987;59.928;30.306;2023-10-09T06:06:42;100372.25;;;2.60;97.72
41254;BME280;26987;59.928;30.306;2023-10-09T06:09:14;100368.94;;;2.58;98.11
41254;BME280;26987;59.928;30.306;2023-10-09T06:12:00;100368.44;;;2.54;97.24
41254;BME280;26987;59.928;30.306;2023-10-09T06:15:00;100373.75;;;2.54;97.23
41254;BME280;26987;59.928;30.306;2023-10-09T06:17:42;100366.28;;;2.49;97.65
41254;BME280;26987;59.928;30.306;2023-10-09T06:20:16;100357.66;;;2.47;97.76
41254;BME280;26987;59.928;30.306;2023-10-09T06:23:26;100372.25;;;2.60;97.14
41254;BME280;26987;59.928;30.306;2023-10-09T06:26:16;100367.13;;;2.58;96.92
41254;BME280;26987;59.928;30.306;2023-10-09T06:29:00;100375.41;;;2.72;96.71
41254;BME280;26987;59.928;30.306;2023-10-09T06:32:00;100383.53;;;2.87;95.59
41254;BME280;26987;59.928;30.306;2023-10-09T06:34:43;100387.34;;;2.93;94.31
41254;BME280;26987;59.928;30.306;2023-10-09T06:37:12;100375.09;;;3.00;94.60
41254;BME280;26987;59.928;30.306;2023-10-09T06:40:01;100383.53;;;3.12;93.83
41254;BME280;26987;59.928;30.306;2023-10-09T06:42:58;100384.22;;;3.22;93.16
41254;BME280;26987;59.928;30.306;2023-10-09T06:45:35;100374.09;;;3.26;93.21
41254;BME280;26987;59.928;30.306;2023-10-09T06:48:11;100371.28;;;3.19;92.29
41254;BME280;26987;59.928;30.306;2023-10-09T06:50:53;100380.72;;;3.38;91.99
41254;BME280;26987;59.928;30.306;2023-10-09T06:53:30;100383.34;;;3.47;91.04
41254;BME280;26987;59.928;30.306;2023-10-09T06:56:12;100386.97;;;3.62;90.10
41254;BME280;26987;59.928;30.306;2023-10-09T06:58:51;100373.19;;;3.67;89.33
41254;BME280;26987;59.928;30.306;2023-10-09T07:01:21;100375.69;;;3.69;88.17
41254;BME280;26987;59.928;30.306;2023-10-09T07:04:06;100379.63;;;3.73;88.13
41254;BME280;26987;59.928;30.306;2023-10-09T07:06:44;100383.75;;;3.84;87.65
41254;BME280;26987;59.928;30.306;2023-10-09T07:09:17;100388.88;;;3.85;87.79
41254;BME280;26987;59.928;30.306;2023-10-09T07:11:48;100387.72;;;3.88;87.04
41254;BME280;26987;59.928;30.306;2023-10-09T07:14:31;100396.47;;;3.97;87.54
41254;BME280;26987;59.928;30.306;2023-10-09T07:17:16;100400.41;;;4.01;87.15
41254;BME280;26987;59.928;30.306;2023-10-09T07:19:51;100395.72;;;4.11;86.56
41254;BME280;26987;59.928;30.306;2023-10-09T07:22:39;100397.69;;;4.26;86.38
41254;BME280;26987;59.928;30.306;2023-10-09T07:25:22;100400.28;;;4.34;85.65
41254;BME280;26987;59.928;30.306;2023-10-09T07:28:21;100406.94;;;4.30;85.61
41254;BME280;26987;59.928;30.306;2023-10-09T07:31:18;100405.84;;;4.48;86.36
41254;BME280;26987;59.928;30.306;2023-10-09T07:34:05;100403.38;;;4.46;85.18
41254;BME280;26987;59.928;30.306;2023-10-09T07:36:56;100411.66;;;4.51;83.98
41254;BME280;26987;59.928;30.306;2023-10-09T07:39:23;100402.25;;;4.40;84.50
41254;BME280;26987;59.928;30.306;2023-10-09T07:42:03;100410.47;;;4.54;84.28
41254;BME280;26987;59.928;30.306;2023-10-09T07:44:45;100420.06;;;4.63;83.35
41254;BME280;26987;59.928;30.306;2023-10-09T07:47:20;100413.03;;;4.71;83.37
41254;BME280;26987;59.928;30.306;2023-10-09T07:49:59;100419.63;;;4.75;82.77
41254;BME280;26987;59.928;30.306;2023-10-09T07:52:30;100411.44;;;4.85;81.99
41254;BME280;26987;59.928;30.306;2023-10-09T07:54:58;100409.16;;;4.82;81.39
41254;BME280;26987;59.928;30.306;2023-10-09T07:57:52;100418.28;;;4.79;81.34
41254;BME280;26987;59.928;30.306;2023-10-09T08:00:20;100434.28;;;4.71;81.32
41254;BME280;26987;59.928;30.306;2023-10-09T08:03:17;100419.09;;;4.79;81.66
41254;BME280;26987;59.928;30.306;2023-10-09T08:05:51;100427.75;;;4.82;80.47
41254;BME280;26987;59.928;30.306;2023-10-09T08:08:33;100429.22;;;4.84;80.35
41254;BME280;26987;59.928;30.306;2023-10-09T08:11:11;100415.09;;;4.60;79.49
41254;BME280;26987;59.928;30.306;2023-10-09T08:14:07;100437.59;;;4.73;81.00
41254;BME280;26987;59.928;30.306;2023-10-09T08:16:48;100435.28;;;4.93;79.81
41254;BME280;26987;59.928;30.306;2023-10-09T08:19:16;100422.78;;;5.02;79.41
41254;BME280;26987;59.928;30.306;2023-10-09T08:22:00;100445.56;;;5.20;78.72
41254;BME280;26987;59.928;30.306;2023-10-09T08:25:00;100436.00;;;5.10;78.24
41254;BME280;26987;59.928;30.306;2023-10-09T08:27:30;100436.00;;;5.10;78.94
41254;BME280;26987;59.928;30.306;2023-10-09T08:30:21;100443.97;;;5.10;78.02
41254;BME280;26987;59.928;30.306;2023-10-09T08:33:06;100450.94;;;5.11;78.14
41254;BME280;26987;59.928;30.306;2023-10-09T08:35:54;100405.78;;;4.88;78.17
41254;BME280;26987;59.928;30.306;2023-10-09T08:38:28;100443.41;;;5.00;77.96
41254;BME280;26987;59.928;30.306;2023-10-09T08:41:07;100437.34;;;5.06;78.64
41254;BME280;26987;59.928;30.306;2023-10-09T08:43:49;100445.97;;;5.08;78.98
41254;BME280;26987;59.928;30.306;2023-10-09T08:46:23;100406.38;;;4.98;78.71
41254;BME280;26987;59.928;30.306;2023-10-09T08:48:54;100442.75;;;5.36;78.04
41254;BME280;26987;59.928;30.306;2023-10-09T08:51:26;100449.56;;;5.39;77.20
41254;BME280;26987;59.928;30.306;2023-10-09T08:53:55;100445.41;;;5.36;77.01
41254;BME280;26987;59.928;30.306;2023-10-09T08:56:23;100446.97;;;5.30;76.74
41254;BME280;26987;59.928;30.306;2023-10-09T08:58:52;100434.91;;;5.20;76.48
41254;BME280;26987;59.928;30.306;2023-10-09T09:01:21;100452.06;;;5.17;76.48
41254;BME280;26987;59.928;30.306;2023-10-09T09:03:52;100449.72;;;5.22;76.85
41254;BME280;26987;59.928;30.306;2023-10-09T09:06:22;100448.16;;;5.28;76.55
41254;BME280;26987;59.928;30.306;2023-10-09T09:08:52;100436.47;;;5.14;76.13
41254;BME280;26987;59.928;30.306;2023-10-09T09:11:25;100451.06;;;5.18;76.64
41254;BME280;26987;59.928;30.306;2023-10-09T09:14:01;100455.97;;;5.29;76.84
41254;BME280;26987;59.928;30.306;2023-10-09T09:16:32;100451.13;;;5.33;76.87
41254;BME280;26987;59.928;30.306;2023-10-09T09:19:02;100458.53;;;5.38;76.01
41254;BME280;26987;59.928;30.306;2023-10-09T09:21:32;100449.22;;;5.18;75.43
41254;BME280;26987;59.928;30.306;2023-10-09T09:24:11;100455.25;;;5.12;76.16
41254;BME280;26987;59.928;30.306;2023-10-09T09:26:54;100467.19;;;5.16;75.91
41254;BME280;26987;59.928;30.306;2023-10-09T09:29:39;100465.66;;;5.22;77.57
41254;BME280;26987;59.928;30.306;2023-10-09T09:32:08;100470.84;;;5.15;77.47
41254;BME280;26987;59.928;30.306;2023-10-09T09:34:44;100473.84;;;5.12;77.08
41254;BME280;26987;59.928;30.306;2023-10-09T09:37:19;100474.16;;;5.17;77.80
41254;BME280;26987;59.928;30.306;2023-10-09T09:39:50;100467.94;;;5.02;77.49
41254;BME280;26987;59.928;30.306;2023-10-09T09:42:19;100473.78;;;4.97;78.23
41254;BME280;26987;59.928;30.306;2023-10-09T09:44:52;100474.13;;;4.94;78.56
41254;BME280;26987;59.928;30.306;2023-10-09T09:47:20;100464.66;;;5.00;78.98
41254;BME280;26987;59.928;30.306;2023-10-09T09:49:53;100458.59;;;5.06;78.60
41254;BME280;26987;59.928;30.306;2023-10-09T09:52:28;100472.03;;;5.13;77.65
41254;BME280;26987;59.928;30.306;2023-10-09T09:55:07;100474.03;;;5.11;77.57
41254;BME280;26987;59.928;30.306;2023-10-09T09:57:40;100439.59;;;4.94;78.08
41254;BME280;26987;59.928;30.306;2023-10-09T10:00:12;100466.38;;;5.16;77.75
41254;BME280;26987;59.928;30.306;2023-10-09T10:02:57;100473.28;;;5.25;75.77
41254;BME280;26987;59.928;30.306;2023-10-09T10:05:28;100478.94;;;5.22;74.44
41254;BME280;26987;59.928;30.306;2023-10-09T10:07:58;100475.47;;;5.22;75.01
41254;BME280;26987;59.928;30.306;2023-10-09T10:10:38;100471.78;;;5.23;75.13
41254;BME280;26987;59.928;30.306;2023-10-09T10:13:14;100468.72;;;5.11;75.67
41254;BME280;26987;59.928;30.306;2023-10-09T10:15:58;100470.63;;;5.25;76.28
41254;BME280;26987;59.928;30.306;2023-10-09T10:18:32;100460.53;;;5.21;76.37
41254;BME280;26987;59.928;30.306;2023-10-09T10:21:12;100475.06;;;5.33;76.58
41254;BME280;26987;59.928;30.306;2023-10-09T10:23:43;100469.78;;;5.25;76.79
41254;BME280;26987;59.928;30.306;2023-10-09T10:26:19;100475.31;;;5.38;77.61
41254;BME280;26987;59.928;30.306;2023-10-09T10:29:15;100470.13;;;5.45;77.24
41254;BME280;26987;59.928;30.306;2023-10-09T10:31:54;100476.75;;;5.26;76.76
41254;BME280;26987;59.928;30.306;2023-10-09T10:34:23;100465.19;;;5.18;76.52
41254;BME280;26987;59.928;30.306;2023-10-09T10:36:52;100475.63;;;5.20;76.62
41254;BME280;26987;59.928;30.306;2023-10-09T10:39:26;100474.09;;;5.26;76.38
41254;BME280;26987;59.928;30.306;2023-10-09T10:42:14;100482.91;;;5.26;76.22
41254;BME280;26987;59.928;30.306;2023-10-09T10:45:00;100461.22;;;5.14;76.47
41254;BME280;26987;59.928;30.306;2023-10-09T10:47:30;100479.13;;;5.21;76.41
41254;BME280;26987;59.928;30.306;2023-10-09T10:50:02;100476.38;;;5.29;76.20
41254;BME280;26987;59.928;30.306;2023-10-09T10:53:08;100448.69;;;5.23;75.97
41254;BME280;26987;59.928;30.306;2023-10-09T10:55:56;100477.19;;;5.53;75.69
41254;BME280;26987;59.928;30.306;2023-10-09T10:58:24;100482.13;;;5.41;75.24
41254;BME280;26987;59.928;30.306;2023-10-09T11:01:02;100481.84;;;5.36;75.05
41254;BME280;26987;59.928;30.306;2023-10-09T11:03:42;100469.34;;;5.36;75.53
41254;BME280;26987;59.928;30.306;2023-10-09T11:06:26;100359.41;;;4.67;74.43
41254;BME280;26987;59.928;30.306;2023-10-09T11:09:03;100478.00;;;5.38;73.97
41254;BME280;26987;59.928;30.306;2023-10-09T11:11:48;100471.25;;;5.27;74.37
41254;BME280;26987;59.928;30.306;2023-10-09T11:14:18;100479.75;;;5.23;75.21
41254;BME280;26987;59.928;30.306;2023-10-09T11:16:50;100473.69;;;5.14;75.49
41254;BME280;26987;59.928;30.306;2023-10-09T11:19:24;100473.31;;;5.17;74.88
41254;BME280;26987;59.928;30.306;2023-10-09T11:22:06;100474.50;;;5.14;75.54
41254;BME280;26987;59.928;30.306;2023-10-09T11:24:57;100480.19;;;5.11;74.82
41254;BME280;26987;59.928;30.306;2023-10-09T11:27:40;100471.63;;;5.01;75.44
41254;BME280;26987;59.928;30.306;2023-10-09T11:30:18;100472.63;;;5.00;75.03
41254;BME280;26987;59.928;30.306;2023-10-09T11:33:05;100488.75;;;4.98;75.73
41254;BME280;26987;59.928;30.306;2023-10-09T11:35:34;100489.13;;;4.87;75.37
41254;BME280;26987;59.928;30.306;2023-10-09T11:38:05;100480.97;;;4.65;76.16
41254;BME280;26987;59.928;30.306;2023-10-09T11:40:47;100444.72;;;4.40;76.58
41254;BME280;26987;59.928;30.306;2023-10-09T11:43:51;100487.00;;;4.82;77.05
41254;BME280;26987;59.928;30.306;2023-10-09T11:46:20;100494.69;;;4.77;77.75
41254;BME280;26987;59.928;30.306;2023-10-09T11:49:14;100496.66;;;4.75;77.13
41254;BME280;26987;59.928;30.306;2023-10-09T11:52:09;100496.94;;;4.88;77.23
41254;BME280;26987;59.928;30.306;2023-10-09T11:54:51;100487.84;;;4.83;76.19
41254;BME280;26987;59.928;30.306;2023-10-09T11:57:26;100489.03;;;4.80;76.47
41254;BME280;26987;59.928;30.306;2023-10-09T12:00:00;100497.97;;;4.79;76.11
41254;BME280;26987;59.928;30.306;2023-10-09T12:02:38;100490.06;;;4.71;76.03
41254;BME280;26987;59.928;30.306;2023-10-09T12:05:10;100486.72;;;4.69;75.90
41254;BME280;26987;59.928;30.306;2023-10-09T12:07:44;100497.00;;;4.72;76.39
41254;BME280;26987;59.928;30.306;2023-10-09T12:10:12;100501.69;;;4.70;75.81
41254;BME280;26987;59.928;30.306;2023-10-09T12:12:51;100458.97;;;4.48;74.71
41254;BME280;26987;59.928;30.306;2023-10-09T12:15:19;100457.00;;;4.41;74.38
41254;BME280;26987;59.928;30.306;2023-10-09T12:17:48;100478.41;;;4.72;74.42
41254;BME280;26987;59.928;30.306;2023-10-09T12:20:20;100501.59;;;4.86;73.92
41254;BME280;26987;59.928;30.306;2023-10-09T12:22:58;100493.38;;;4.73;74.06
41254;BME280;26987;59.928;30.306;2023-10-09T12:25:26;100442.75;;;4.34;75.24
41254;BME280;26987;59.928;30.306;2023-10-09T12:27:57;100494.09;;;4.58;75.27
41254;BME280;26987;59.928;30.306;2023-10-09T12:30:35;100507.63;;;4.72;75.65
41254;BME280;26987;59.928;30.306;2023-10-09T12:33:08;100498.53;;;4.66;74.84
41254;BME280;26987;59.928;30.306;2023-10-09T12:35:36;100508.81;;;4.69;75.34
41254;BME280;26987;59.928;30.306;2023-10-09T12:38:05;100498.88;;;4.63;75.61
41254;BME280;26987;59.928;30.306;2023-10-09T12:40:35;100490.47;;;4.59;75.70
41254;BME280;26987;59.928;30.306;2023-10-09T12:43:04;100508.69;;;4.62;77.06
41254;BME280;26987;59.928;30.306;2023-10-09T12:45:34;100505.38;;;4.60;76.35
41254;BME280;26987;59.928;30.306;2023-10-09T12:48:02;100509.22;;;4.58;76.63
41254;BME280;26987;59.928;30.306;2023-10-09T12:50:36;100507.88;;;4.62;76.69
41254;BME280;26987;59.928;30.306;2023-10-09T12:53:08;100515.00;;;4.61;76.54
41254;BME280;26987;59.928;30.306;2023-10-09T12:55:37;100513.19;;;4.53;76.40
41254;BME280;26987;59.928;30.306;2023-10-09T12:58:08;100384.28;;;3.71;76.35
41254;BME280;26987;59.928;30.306;2023-10-09T13:00:37;100503.47;;;4.37;75.83
41254;BME280;26987;59.928;30.306;2023-10-09T13:03:11;100432.16;;;3.77;76.17
41254;BME280;26987;59.928;30.306;2023-10-09T13:05:47;100520.75;;;4.25;77.16
41254;BME280;26987;59.928;30.306;2023-10-09T13:08:22;100516.16;;;4.19;77.00
41254;BME280;26987;59.928;30.306;2023-10-09T13:11:03;100499.94;;;3.97;77.18
41254;BME280;26987;59.928;30.306;2023-10-09T13:13:38;100518.50;;;4.05;76.96
41254;BME280;26987;59.928;30.306;2023-10-09T13:16:10;100518.19;;;4.00;77.16
41254;BME280;26987;59.928;30.306;2023-10-09T13:18:40;100516.19;;;3.94;78.15
41254;BME280;26987;59.928;30.306;2023-10-09T13:21:13;100519.84;;;3.93;77.94
41254;BME280;26987;59.928;30.306;2023-10-09T13:23:41;100515.03;;;3.88;78.83
41254;BME280;26987;59.928;30.306;2023-10-09T13:26:13;100506.75;;;3.83;79.25
41254;BME280;26987;59.928;30.306;2023-10-09T13:28:51;100502.13;;;3.85;79.76
41254;BME280;26987;59.928;30.306;2023-10-09T13:31:20;100514.19;;;3.87;79.48
41254;BME280;26987;59.928;30.306;2023-10-09T13:33:52;100509.91;;;3.86;79.65